Time;durP1;ratioP1;P1;durP2;ratioP2;P2;SDS_P1;SDS_P2;PMS_P1;PMS_P2;Temp;Humidity;BMP_temperature;BMP_pressure;BME280_temperature;BME280_humidity;BME280_pressure;Samples;Min_cycle;Max_cycle;Signal;HPM_P1;HPM_P2
2021/06/15 00:01:11;;;;;;;19.17;12.45;;;;;;;19.42;68.63;99695.09;5112194;28;20096;-60
2021/06/15 00:03:37;;;;;;;18.33;12.13;;;;;;;19.44;68.80;99705.75;5113228;27;20118;-61
2021/06/15 00:06:03;;;;;;;23.95;13.13;;;;;;;19.37;68.83;99705.66;5111632;28;20043;-61
2021/06/15 00:08:28;;;;;;;21.60;12.20;;;;;;;19.39;68.74;99711.72;5110831;28;20107;-61
2021/06/15 00:10:53;;;;;;;18.83;12.05;;;;;;;19.36;68.73;99712.09;5112390;28;20055;-61
2021/06/15 00:13:21;;;;;;;22.05;11.70;;;;;;;19.38;68.63;99707.31;5112888;28;20039;-60
2021/06/15 00:15:47;;;;;;;18.38;11.63;;;;;;;19.31;68.45;99696.38;5113110;28;20063;-60
2021/06/15 00:18:17;;;;;;;21.15;12.00;;;;;;;19.35;69.02;99714.00;5113290;28;20070;-60
2021/06/15 00:20:44;;;;;;;19.13;12.00;;;;;;;19.25;69.03;99705.25;5112689;28;20452;-61
2021/06/15 00:23:09;;;;;;;20.25;12.10;;;;;;;19.29;68.86;99706.59;5112581;28;20058;-60
2021/06/15 00:25:35;;;;;;;22.88;12.60;;;;;;;19.28;69.41;99699.44;5113574;28;20526;-61
2021/06/15 00:28:00;;;;;;;18.52;12.48;;;;;;;18.93;69.38;99661.06;5112617;28;20073;-60
2021/06/15 00:30:26;;;;;;;16.63;12.77;;;;;;;19.21;69.50;99712.06;5112353;28;20038;-60
2021/06/15 00:32:52;;;;;;;19.70;12.80;;;;;;;19.17;69.88;99698.03;5112983;27;20031;-60
2021/06/15 00:35:18;;;;;;;24.25;13.10;;;;;;;19.12;70.09;99700.44;5112779;28;20125;-62
2021/06/15 00:37:44;;;;;;;16.55;12.40;;;;;;;19.15;70.20;99710.94;5112273;28;20111;-60
2021/06/15 00:40:10;;;;;;;19.05;12.60;;;;;;;19.14;70.01;99711.94;5112379;28;20123;-60
2021/06/15 00:42:36;;;;;;;20.95;12.63;;;;;;;19.13;70.00;99706.72;5092858;28;20399;-60
2021/06/15 00:45:13;;;;;;;18.60;12.07;;;;;;;19.13;70.61;99701.28;5092410;28;20032;-60
2021/06/15 00:47:45;;;;;;;21.05;13.40;;;;;;;19.08;70.54;99701.84;5091613;28;20047;-61
2021/06/15 00:50:11;;;;;;;20.88;12.70;;;;;;;19.08;70.85;99708.13;5091957;28;20028;-60
2021/06/15 00:52:37;;;;;;;20.20;13.43;;;;;;;19.07;70.72;99698.28;5100218;28;20084;-60
2021/06/15 00:55:04;;;;;;;21.10;12.70;;;;;;;18.59;70.60;99624.41;5112269;27;20083;-61
2021/06/15 00:57:29;;;;;;;23.20;13.90;;;;;;;19.06;70.54;99712.88;5112103;28;20038;-59
2021/06/15 00:59:56;;;;;;;19.80;13.43;;;;;;;19.06;70.73;99718.31;5111976;28;20036;-61
2021/06/15 01:02:22;;;;;;;19.77;13.70;;;;;;;19.05;70.65;99708.50;5112221;28;20059;-59
2021/06/15 01:04:48;;;;;;;22.90;13.27;;;;;;;19.05;70.52;99707.63;5112229;28;20395;-61
2021/06/15 01:07:26;;;;;;;27.08;14.23;;;;;;;19.11;71.60;99706.06;5111870;28;20024;-60
2021/06/15 01:10:09;;;;;;;21.83;13.52;;;;;;;19.13;71.16;99702.13;5111363;28;20046;-61
2021/06/15 01:12:53;;;;;;;19.85;13.65;;;;;;;19.11;70.71;99704.19;5111992;28;20479;-60
2021/06/15 01:15:32;;;;;;;23.27;13.80;;;;;;;19.17;71.75;99714.31;5111956;28;20047;-61
2021/06/15 01:18:09;;;;;;;20.65;13.65;;;;;;;19.16;71.66;99703.66;5111559;28;20431;-60
2021/06/15 01:20:41;;;;;;;21.88;14.00;;;;;;;19.17;71.66;99708.03;5111455;28;20035;-57
2021/06/15 01:23:12;;;;;;;18.63;14.27;;;;;;;19.19;71.43;99701.41;5111925;28;20035;-60
2021/06/15 01:26:06;;;;;;;22.55;13.88;;;;;;;19.31;71.61;99712.69;5111799;28;20035;-60
2021/06/15 01:28:43;;;;;;;32.35;14.68;;;;;;;19.33;71.73;99697.03;5111378;28;20347;-60
2021/06/15 01:31:18;;;;;;;25.70;14.75;;;;;;;19.39;71.15;99711.72;5111315;28;20115;-61
2021/06/15 01:33:49;;;;;;;24.17;14.82;;;;;;;19.40;70.89;99688.97;5090081;28;20035;-61
2021/06/15 01:36:18;;;;;;;27.42;14.95;;;;;;;19.56;70.72;99701.56;5090829;28;20044;-62
2021/06/15 01:38:57;;;;;;;27.00;14.68;;;;;;;19.72;70.66;99692.41;5090929;28;20035;-61
2021/06/15 01:41:46;;;;;;;28.65;14.80;;;;;;;19.82;69.93;99696.69;5090887;28;20027;-60
2021/06/15 01:44:13;;;;;;;28.45;14.63;;;;;;;19.90;69.13;99696.63;5090430;28;20491;-61
2021/06/15 01:47:07;;;;;;;22.35;14.18;;;;;;;20.04;69.09;99675.94;5090724;28;20046;-59
2021/06/15 01:49:45;;;;;;;23.63;14.57;;;;;;;20.20;68.33;99691.16;5086578;28;20040;-61
2021/06/15 01:52:12;;;;;;;25.13;14.88;;;;;;;20.30;67.64;99693.59;5100043;28;20036;-61
2021/06/15 01:54:41;;;;;;;24.45;14.32;;;;;;;20.46;67.57;99690.63;5090264;28;20536;-59
2021/06/15 01:57:10;;;;;;;22.60;14.70;;;;;;;20.58;67.59;99695.56;5091327;28;20047;-61
2021/06/15 01:59:40;;;;;;;29.23;15.07;;;;;;;20.76;66.69;99695.13;5090773;28;20037;-61
2021/06/15 02:02:06;;;;;;;21.95;15.20;;;;;;;20.88;66.31;99688.16;5090682;28;20096;-60
2021/06/15 02:04:34;;;;;;;19.23;14.38;;;;;;;21.05;65.80;99686.00;5089511;28;20039;-61
2021/06/15 02:07:02;;;;;;;23.13;14.68;;;;;;;20.86;65.78;99637.69;5090211;28;20513;-61
2021/06/15 02:09:31;;;;;;;23.13;14.38;;;;;;;21.32;64.20;99678.06;5090172;28;20113;-61
2021/06/15 02:11:57;;;;;;;23.77;14.25;;;;;;;21.47;63.72;99688.00;5090065;28;20051;-62
2021/06/15 02:14:27;;;;;;;19.00;14.00;;;;;;;21.58;63.35;99692.88;5090261;28;20043;-62
2021/06/15 02:16:59;;;;;;;18.20;14.57;;;;;;;21.74;61.06;99675.41;5089810;28;20572;-62
2021/06/15 02:19:26;;;;;;;23.20;13.98;;;;;;;21.84;61.91;99675.03;5090254;28;20036;-61
2021/06/15 02:21:59;;;;;;;20.27;13.57;;;;;;;21.77;62.12;99646.94;5090216;28;20039;-62
2021/06/15 02:24:31;;;;;;;24.27;14.23;;;;;;;21.89;61.94;99674.44;5087998;28;20425;-61
2021/06/15 02:26:57;;;;;;;18.17;14.05;;;;;;;21.90;62.10;99671.50;5087716;28;20119;-61
2021/06/15 02:29:22;;;;;;;19.23;13.75;;;;;;;21.93;62.61;99673.81;5090107;28;20615;-63
2021/06/15 02:32:00;;;;;;;19.13;13.57;;;;;;;21.96;62.49;99663.59;5089740;28;20039;-60
2021/06/15 02:34:28;;;;;;;21.25;14.40;;;;;;;22.06;61.54;99674.94;5089983;28;20032;-61
2021/06/15 02:36:55;;;;;;;19.40;13.35;;;;;;;22.09;61.23;99679.97;5090203;28;20097;-61
2021/06/15 02:39:26;;;;;;;18.92;14.05;;;;;;;22.25;60.73;99675.22;5090780;28;20111;-61
2021/06/15 02:41:54;;;;;;;22.65;14.15;;;;;;;22.46;60.29;99675.13;5089971;28;20028;-61
2021/06/15 02:44:23;;;;;;;18.27;14.82;;;;;;;22.53;59.69;99663.38;5089843;28;20063;-61
2021/06/15 02:46:50;;;;;;;20.77;14.80;;;;;;;22.64;59.16;99673.66;5090511;28;20538;-60
2021/06/15 02:49:21;;;;;;;22.50;15.32;;;;;;;22.76;58.48;99682.94;5090552;28;20028;-60
2021/06/15 02:52:13;;;;;;;17.73;14.35;;;;;;;22.87;58.37;99686.94;5090097;28;20114;-60
2021/06/15 02:54:58;;;;;;;18.70;15.32;;;;;;;23.12;57.82;99689.06;5090429;28;20126;-60
2021/06/15 02:57:26;;;;;;;20.30;15.48;;;;;;;23.33;57.10;99688.00;5090394;28;20113;-60
2021/06/15 02:59:53;;;;;;;21.38;15.13;;;;;;;23.77;56.20;99693.00;5090056;28;20063;-61
2021/06/15 03:02:19;;;;;;;19.40;16.38;;;;;;;24.26;54.74;99685.28;5088295;28;20031;-61
2021/06/15 03:04:46;;;;;;;25.73;14.82;;;;;;;24.80;53.24;99669.41;5089663;28;20032;-61
2021/06/15 03:07:12;;;;;;;23.88;14.23;;;;;;;25.20;51.33;99671.00;5089917;28;20032;-59
2021/06/15 03:09:38;;;;;;;19.77;14.48;;;;;;;25.54;50.22;99665.19;5088845;28;20177;-60
2021/06/15 03:12:15;;;;;;;21.95;14.52;;;;;;;26.10;48.56;99670.72;5089309;28;20507;-61
2021/06/15 03:14:44;;;;;;;22.23;13.15;;;;;;;26.45;47.20;99636.28;5089777;28;20095;-61
2021/06/15 03:17:11;;;;;;;13.10;10.75;;;;;;;27.28;45.20;99671.31;5089005;28;20062;-61
2021/06/15 03:19:37;;;;;;;12.93;10.05;;;;;;;27.84;43.28;99665.44;5090357;28;20051;-61
2021/06/15 03:22:39;;;;;;;12.35;9.68;;;;;;;28.38;39.99;99675.38;5089560;28;20039;-61
2021/06/15 03:25:05;;;;;;;10.68;9.68;;;;;;;28.34;40.63;99675.88;5089588;28;20028;-60
2021/06/15 03:27:41;;;;;;;9.68;8.77;;;;;;;28.29;40.21;99677.69;5089861;28;20074;-60
2021/06/15 03:30:14;;;;;;;9.52;8.52;;;;;;;28.25;40.14;99677.31;5089504;28;20132;-62
2021/06/15 03:32:53;;;;;;;9.85;8.50;;;;;;;28.24;39.13;99625.28;5089743;28;20085;-60
2021/06/15 03:35:20;;;;;;;12.70;7.78;;;;;;;28.83;39.26;99676.50;5089111;28;20119;-60
2021/06/15 03:37:56;;;;;;;11.73;7.85;;;;;;;29.72;36.55;99679.53;5089303;28;20063;-60
2021/06/15 03:40:23;;;;;;;9.50;8.40;;;;;;;30.31;36.24;99653.22;5089685;28;20032;-60
2021/06/15 03:42:51;;;;;;;10.80;8.10;;;;;;;30.63;35.18;99674.59;5091053;28;20118;-61
2021/06/15 03:45:18;;;;;;;8.65;7.85;;;;;;;30.90;34.58;99673.75;5093181;28;20448;-60
2021/06/15 03:47:47;;;;;;;9.57;8.00;;;;;;;31.19;33.95;99674.25;5093379;28;20455;-59
2021/06/15 03:50:15;;;;;;;10.13;7.75;;;;;;;31.35;33.70;99672.47;5093208;28;20044;-61
2021/06/15 03:52:41;;;;;;;9.40;7.38;;;;;;;31.64;33.61;99668.47;5093792;28;20036;-60
2021/06/15 03:55:09;;;;;;;7.78;6.82;;;;;;;32.02;32.36;99665.63;5093149;28;20027;-60
2021/06/15 03:57:41;;;;;;;9.60;7.10;;;;;;;32.59;30.99;99676.91;5092801;28;20024;-60
2021/06/15 04:00:09;;;;;;;11.80;7.57;;;;;;;33.21;30.36;99671.38;5093265;28;20040;-60
2021/06/15 04:02:38;;;;;;;8.05;7.00;;;;;;;33.75;28.92;99669.06;5092449;28;20042;-61
2021/06/15 04:05:05;;;;;;;7.63;6.47;;;;;;;34.21;28.66;99670.84;5091518;28;20043;-60
2021/06/15 04:07:33;;;;;;;12.80;7.50;;;;;;;34.60;28.16;99669.25;5093190;28;20126;-60
2021/06/15 04:10:00;;;;;;;8.25;6.93;;;;;;;34.97;27.02;99667.88;5092691;28;20043;-60
2021/06/15 04:12:27;;;;;;;13.35;7.63;;;;;;;35.52;26.73;99661.25;5092624;28;20058;-61
2021/06/15 04:14:54;;;;;;;8.63;7.70;;;;;;;36.10;25.70;99665.03;5093070;28;20036;-60
2021/06/15 04:17:27;;;;;;;7.20;6.55;;;;;;;36.60;24.67;99666.56;5092826;28;20504;-60
2021/06/15 04:19:55;;;;;;;8.77;7.15;;;;;;;36.73;24.51;99671.41;5092542;28;20036;-60
2021/06/15 04:22:26;;;;;;;8.95;7.43;;;;;;;37.18;23.64;99675.69;5090817;28;20477;-60
2021/06/15 04:24:54;;;;;;;9.10;7.50;;;;;;;37.89;22.82;99666.25;5092891;28;20040;-60
2021/06/15 04:27:22;;;;;;;7.68;6.97;;;;;;;38.68;21.82;99669.00;5091233;28;20036;-61
2021/06/15 04:29:49;;;;;;;7.70;6.80;;;;;;;39.45;20.83;99688.66;5092219;28;20181;-60
2021/06/15 04:32:18;;;;;;;8.00;7.20;;;;;;;40.05;19.74;99664.81;5091606;28;20167;-62
2021/06/15 04:34:51;;;;;;;7.68;6.88;;;;;;;40.67;19.25;99689.31;5093320;28;20472;-61
2021/06/15 04:37:18;;;;;;;9.77;6.72;;;;;;;41.32;18.69;99684.63;5092227;28;20432;-60
2021/06/15 04:39:56;;;;;;;6.80;6.18;;;;;;;41.61;17.81;99648.50;5092384;28;20044;-62
2021/06/15 04:42:36;;;;;;;7.80;7.10;;;;;;;42.16;16.79;99686.06;5092271;28;20036;-61
2021/06/15 04:45:02;;;;;;;6.95;6.20;;;;;;;42.33;17.60;99681.47;5092176;28;20511;-62
2021/06/15 04:47:32;;;;;;;7.43;6.10;;;;;;;42.77;16.83;99669.06;5091983;28;20032;-61
2021/06/15 04:50:01;;;;;;;7.18;6.30;;;;;;;43.13;16.20;99679.63;5090973;28;20043;-61
2021/06/15 04:52:29;;;;;;;7.80;6.95;;;;;;;42.77;16.77;99674.69;5092051;28;20040;-61
2021/06/15 04:54:56;;;;;;;7.22;6.60;;;;;;;42.72;16.92;99676.53;5090956;28;20028;-61
2021/06/15 04:57:25;;;;;;;7.25;6.55;;;;;;;43.06;15.92;99656.88;5091354;28;20043;-61
2021/06/15 04:59:54;;;;;;;11.15;6.95;;;;;;;43.58;15.75;99675.13;5091433;28;20565;-60
2021/06/15 05:02:21;;;;;;;8.25;6.80;;;;;;;44.20;15.39;99673.50;5091435;28;20058;-59
2021/06/15 05:04:48;;;;;;;7.30;6.70;;;;;;;44.38;15.26;99668.38;5090934;28;20038;-61
2021/06/15 05:07:21;;;;;;;7.20;5.90;;;;;;;44.66;15.03;99670.41;5091337;28;20024;-62
2021/06/15 05:09:52;;;;;;;6.93;6.32;;;;;;;44.96;14.28;99673.72;5099552;28;20191;-62
2021/06/15 05:12:20;;;;;;;7.10;6.20;;;;;;;44.97;14.34;99638.66;5108368;28;20051;-61
2021/06/15 05:14:46;;;;;;;6.03;5.43;;;;;;;45.82;13.77;99677.16;5112150;28;20494;-59
2021/06/15 05:17:14;;;;;;;6.43;5.57;;;;;;;46.21;12.70;99678.44;5094016;28;20051;-61
2021/06/15 05:19:40;;;;;;;7.20;6.10;;;;;;;45.81;13.07;99669.84;5095359;28;20055;-60
2021/06/15 05:22:17;;;;;;;5.30;4.80;;;;;;;46.12;12.81;99673.00;5099793;28;20418;-62
2021/06/15 05:24:45;;;;;;;6.78;6.18;;;;;;;46.75;12.32;99668.25;5100265;28;20027;-62
2021/06/15 05:27:11;;;;;;;6.03;5.47;;;;;;;47.37;12.30;99663.75;5100052;28;20036;-61
2021/06/15 05:29:37;;;;;;;8.85;6.57;;;;;;;47.90;12.07;99660.16;5102341;28;20057;-61
2021/06/15 05:32:06;;;;;;;6.65;5.72;;;;;;;48.33;11.43;99651.44;5111480;28;20031;-57
2021/06/15 05:34:32;;;;;;;6.97;5.95;;;;;;;48.81;11.41;99665.00;5111031;28;20031;-61
2021/06/15 05:36:58;;;;;;;6.43;5.38;;;;;;;48.98;11.09;99657.06;5111079;28;20032;-60
2021/06/15 05:39:23;;;;;;;6.13;5.40;;;;;;;49.04;10.91;99655.50;5111145;28;20030;-60
2021/06/15 05:41:49;;;;;;;6.15;5.50;;;;;;;48.69;10.92;99654.69;5110163;28;20027;-62
2021/06/15 05:44:14;;;;;;;6.25;5.30;;;;;;;48.95;10.92;99664.31;5111409;28;20039;-62
2021/06/15 05:46:40;;;;;;;6.50;5.85;;;;;;;49.39;10.35;99653.38;5110431;28;20605;-60
2021/06/15 05:49:05;;;;;;;9.07;5.82;;;;;;;49.75;10.42;99642.31;5111182;28;20128;-60
2021/06/15 05:51:32;;;;;;;6.35;5.75;;;;;;;50.15;9.79;99655.94;5110788;28;20031;-65
2021/06/15 05:54:02;;;;;;;6.38;5.07;;;;;;;50.49;9.32;99650.00;5102723;28;20040;-61
2021/06/15 05:56:28;;;;;;;9.52;5.65;;;;;;;50.97;9.12;99646.91;5099826;28;20157;-60
2021/06/15 05:58:54;;;;;;;6.38;5.78;;;;;;;51.27;9.08;99633.50;5100356;28;20036;-60
2021/06/15 06:01:19;;;;;;;6.43;5.88;;;;;;;51.09;9.03;99642.00;5101458;28;20156;-64
2021/06/15 06:03:51;;;;;;;6.15;5.47;;;;;;;51.17;8.78;99643.66;5090663;28;20078;-62
2021/06/15 06:09:14;;;;;;;5.95;5.38;;;;;;;51.78;8.23;99619.19;5067022;28;20067;-63
2021/06/15 06:11:41;;;;;;;5.90;5.30;;;;;;;51.64;8.17;99637.13;5091049;28;20087;-63
2021/06/15 06:14:07;;;;;;;5.82;4.97;;;;;;;51.33;8.21;99620.47;5090348;28;20036;-63
2021/06/15 06:16:33;;;;;;;4.93;4.53;;;;;;;51.37;8.54;99623.28;5099255;28;20042;-62
2021/06/15 06:19:00;;;;;;;5.57;4.88;;;;;;;51.44;8.32;99628.19;5096974;28;20084;-63
2021/06/15 06:21:27;;;;;;;6.07;5.00;;;;;;;51.51;7.99;99631.84;5090562;28;20054;-63
2021/06/15 06:23:53;;;;;;;5.50;4.70;;;;;;;51.69;8.23;99622.47;5106547;28;20031;-61
2021/06/15 06:26:18;;;;;;;5.50;5.03;;;;;;;52.01;8.01;99618.72;5104889;28;20032;-64
2021/06/15 06:28:44;;;;;;;11.88;6.60;;;;;;;51.26;8.03;99607.00;5110709;28;20036;-63
2021/06/15 06:31:10;;;;;;;6.90;5.40;;;;;;;50.09;8.80;99619.31;5110359;28;20032;-64
2021/06/15 06:33:35;;;;;;;5.93;5.30;;;;;;;50.43;8.78;99621.09;5109582;28;20038;-65
2021/06/15 06:36:02;;;;;;;7.32;5.35;;;;;;;50.96;8.26;99616.78;5100566;28;20039;-64
2021/06/15 06:38:28;;;;;;;6.22;5.07;;;;;;;51.49;7.97;99611.47;5103795;28;20027;-62
2021/06/15 06:40:53;;;;;;;5.05;4.63;;;;;;;50.72;8.35;99603.28;5092796;28;20554;-61
2021/06/15 06:43:18;;;;;;;6.13;5.18;;;;;;;50.32;8.82;99609.69;5086760;28;20062;-64
2021/06/15 06:45:44;;;;;;;5.82;4.70;;;;;;;50.34;8.68;99549.50;5089316;28;20469;-64
2021/06/15 06:48:10;;;;;;;6.78;5.20;;;;;;;51.02;8.04;99570.75;5091704;28;20105;-63
2021/06/15 06:50:37;;;;;;;6.03;5.43;;;;;;;51.64;7.56;99600.88;5094417;28;20396;-63
2021/06/15 06:53:03;;;;;;;6.57;4.68;;;;;;;52.18;7.37;99590.50;5101502;28;20035;-63
2021/06/15 06:55:29;;;;;;;6.18;4.93;;;;;;;51.85;7.68;99601.22;5094113;28;20035;-64
2021/06/15 06:57:55;;;;;;;5.25;4.82;;;;;;;51.33;7.94;99588.28;5103661;28;20032;-64
2021/06/15 07:00:22;;;;;;;7.90;5.60;;;;;;;51.37;7.75;99597.63;5095094;28;20116;-63
2021/06/15 07:02:48;;;;;;;6.68;5.35;;;;;;;51.18;7.70;99596.81;5095656;28;20031;-64
2021/06/15 07:05:15;;;;;;;9.63;6.05;;;;;;;51.42;7.45;99585.00;5094423;28;20048;-64
2021/06/15 07:07:40;;;;;;;7.20;6.25;;;;;;;51.49;7.48;99545.88;5097801;28;20580;-63
2021/06/15 07:10:06;;;;;;;7.32;5.22;;;;;;;52.21;7.71;99583.97;5099118;28;20073;-63
2021/06/15 07:12:31;;;;;;;6.22;5.63;;;;;;;52.82;7.29;99569.31;5094486;28;20047;-62
2021/06/15 07:14:57;;;;;;;7.32;6.63;;;;;;;53.58;6.75;99592.78;5098171;28;20035;-64
2021/06/15 07:17:22;;;;;;;7.22;5.50;;;;;;;53.93;6.26;99591.56;5100794;28;20060;-61
2021/06/15 07:19:48;;;;;;;5.78;5.20;;;;;;;53.96;6.00;99584.16;5101013;28;20077;-65
2021/06/15 07:22:13;;;;;;;5.07;4.68;;;;;;;53.63;5.83;99543.66;5106943;28;20032;-63
2021/06/15 07:24:39;;;;;;;7.47;5.35;;;;;;;53.65;6.06;99587.75;5101604;28;20024;-63
2021/06/15 07:27:05;;;;;;;5.90;5.32;;;;;;;53.41;6.09;99572.50;5102401;28;20169;-63
2021/06/15 07:29:30;;;;;;;6.93;5.40;;;;;;;52.81;6.59;99569.72;5092875;28;20031;-64
2021/06/15 07:31:56;;;;;;;5.20;4.78;;;;;;;50.21;8.08;99580.34;5092885;28;20043;-62
2021/06/15 07:34:22;;;;;;;10.50;5.90;;;;;;;47.72;9.80;99577.63;5093018;28;20039;-63
2021/06/15 07:36:48;;;;;;;8.05;5.18;;;;;;;48.22;9.32;99577.50;5093109;28;20040;-63
2021/06/15 07:39:13;;;;;;;6.95;4.97;;;;;;;49.71;8.30;99558.97;5092867;28;20062;-63
2021/06/15 07:41:39;;;;;;;6.40;4.47;;;;;;;50.87;7.31;99521.47;5093235;28;20510;-64
2021/06/15 07:44:06;;;;;;;5.47;4.80;;;;;;;52.06;7.13;99571.81;5092792;28;20123;-63
2021/06/15 07:46:32;;;;;;;5.47;4.97;;;;;;;52.78;6.23;99565.69;5111494;28;20039;-63
2021/06/15 07:48:57;;;;;;;4.43;4.13;;;;;;;53.46;5.62;99569.19;5108906;28;20478;-62
2021/06/15 07:51:23;;;;;;;6.88;4.88;;;;;;;53.90;5.43;99562.97;5095469;28;20032;-66
2021/06/15 07:53:49;;;;;;;7.68;5.60;;;;;;;54.37;5.04;99563.19;5098014;28;20039;-64
2021/06/15 07:56:16;;;;;;;7.20;5.63;;;;;;;54.47;5.45;99552.81;5094718;28;20039;-64
2021/06/15 07:58:41;;;;;;;5.05;4.65;;;;;;;54.80;5.48;99550.22;5107405;28;20039;-65
2021/06/15 08:01:07;;;;;;;7.00;5.20;;;;;;;55.16;4.83;99553.75;5093659;28;20511;-64
2021/06/15 08:03:33;;;;;;;5.65;5.07;;;;;;;55.23;4.93;99548.69;5108239;28;20410;-64
2021/06/15 08:05:58;;;;;;;5.37;4.87;;;;;;;55.01;4.29;99535.97;5095026;28;20023;-64
2021/06/15 08:08:24;;;;;;;5.35;4.95;;;;;;;54.54;4.75;99551.88;5105573;28;20257;-64
2021/06/15 08:10:49;;;;;;;4.75;4.35;;;;;;;53.81;4.49;99538.56;5098383;28;20048;-63
2021/06/15 08:13:15;;;;;;;5.35;5.05;;;;;;;53.10;5.14;99538.06;5104423;28;20047;-62
2021/06/15 08:15:40;;;;;;;7.78;5.10;;;;;;;52.45;5.73;99519.34;5094121;28;20043;-63
2021/06/15 08:18:06;;;;;;;5.60;5.13;;;;;;;51.35;6.13;99494.56;5107126;28;20032;-61
2021/06/15 08:20:32;;;;;;;6.45;4.53;;;;;;;49.77;7.38;99514.69;5101642;28;20544;-63
2021/06/15 08:22:59;;;;;;;4.50;4.00;;;;;;;48.33;8.37;99506.66;5099459;28;20070;-63
2021/06/15 08:25:25;;;;;;;3.92;3.63;;;;;;;46.17;10.25;99476.66;5091346;28;20082;-62
2021/06/15 08:27:50;;;;;;;5.35;3.90;;;;;;;44.07;11.61;99520.38;5098121;28;20610;-63
2021/06/15 08:30:17;;;;;;;4.35;3.90;;;;;;;41.78;13.34;99498.63;5098091;28;20063;-64
2021/06/15 08:32:43;;;;;;;6.38;4.75;;;;;;;39.80;15.83;99503.88;5103938;27;20049;-68
2021/06/15 08:35:10;;;;;;;5.75;4.93;;;;;;;38.40;17.23;99507.75;5100584;27;20463;-67
2021/06/15 08:37:36;;;;;;;5.88;4.95;;;;;;;37.15;18.66;99526.44;5105751;28;20027;-66
2021/06/15 08:40:04;;;;;;;5.75;4.90;;;;;;;36.19;19.98;99496.06;5094518;28;20093;-65
2021/06/15 08:42:30;;;;;;;7.03;5.75;;;;;;;35.64;20.57;99514.09;5105442;28;20099;-65
2021/06/15 08:44:56;;;;;;;7.70;6.00;;;;;;;34.29;21.25;99380.47;5100521;28;20403;-63
2021/06/15 08:47:21;;;;;;;7.15;5.90;;;;;;;34.66;22.11;99501.28;5098266;28;20032;-66
2021/06/15 08:49:47;;;;;;;7.63;5.85;;;;;;;34.31;22.63;99498.50;5101853;28;20478;-65
2021/06/15 08:52:14;;;;;;;11.02;6.20;;;;;;;33.99;22.91;99502.66;5098462;28;20024;-64
2021/06/15 08:54:40;;;;;;;7.20;5.85;;;;;;;33.60;23.24;99492.31;5097643;28;20035;-62
2021/06/15 08:57:06;;;;;;;9.15;6.20;;;;;;;33.39;23.73;99495.16;5075807;28;20552;-60
2021/06/15 08:59:32;;;;;;;6.90;6.28;;;;;;;33.39;24.69;99497.13;5096691;28;20036;-64
2021/06/15 09:02:05;;;;;;;6.75;5.88;;;;;;;33.50;24.40;99496.81;5106919;28;20032;-61
2021/06/15 09:04:32;;;;;;;8.02;5.75;;;;;;;33.68;24.34;99485.34;5040457;28;20277;-60
2021/06/15 09:06:58;;;;;;;8.70;6.30;;;;;;;33.84;24.12;99478.56;5100729;28;20031;-62
2021/06/15 09:09:47;;;;;;;7.38;6.30;;;;;;;33.97;23.37;99479.91;5103060;28;20035;-63
2021/06/15 09:12:21;;;;;;;9.35;6.60;;;;;;;33.75;24.06;99469.19;5093760;28;20474;-63
2021/06/15 09:14:49;;;;;;;;;;;;;;;34.34;22.60;99475.69;5103035;28;20050;-64
2021/06/15 09:17:27;;;;;;;7.57;6.88;;;;;;;34.13;23.80;99472.28;5101429;28;20018;-64
2021/06/15 09:19:54;;;;;;;11.50;7.30;;;;;;;33.79;23.86;99470.28;5092009;28;20118;-62
2021/06/15 09:22:29;;;;;;;14.38;6.45;;;;;;;33.78;24.36;99466.66;5106608;28;20035;-63
2021/06/15 09:24:55;;;;;;;9.83;7.00;;;;;;;33.85;24.05;99468.28;5098987;28;20479;-63
2021/06/15 09:27:32;;;;;;;14.35;6.60;;;;;;;34.02;24.27;99459.59;5097456;28;20153;-63
2021/06/15 09:30:00;;;;;;;8.15;6.18;;;;;;;34.17;23.78;99462.25;5106716;28;20043;-63
2021/06/15 09:32:28;;;;;;;9.20;5.65;;;;;;;34.28;23.48;99453.84;5094695;28;20019;-62
2021/06/15 09:34:57;;;;;;;8.73;6.13;;;;;;;34.16;23.48;99443.91;5101887;28;20160;-61
2021/06/15 09:37:35;;;;;;;6.55;5.90;;;;;;;34.26;22.77;99454.09;5102467;28;20114;-62
2021/06/15 09:40:22;;;;;;;9.57;5.75;;;;;;;34.33;22.69;99453.78;5092875;28;20392;-66
2021/06/15 09:43:01;;;;;;;8.10;6.45;;;;;;;34.37;23.09;99449.28;5101583;28;20036;-64
2021/06/15 09:45:32;;;;;;;8.40;6.10;;;;;;;34.25;23.52;99446.91;5103069;28;20092;-62
2021/06/15 09:48:20;;;;;;;7.00;6.35;;;;;;;34.38;23.12;99444.56;5092711;28;20490;-64
2021/06/15 09:50:46;;;;;;;12.18;6.65;;;;;;;34.11;23.15;99434.78;5102117;28;20112;-66
2021/06/15 09:53:25;;;;;;;8.68;6.65;;;;;;;34.06;23.97;99447.59;5099938;28;20084;-67
2021/06/15 09:55:52;;;;;;;6.80;6.20;;;;;;;33.83;23.95;99437.22;5092677;28;20396;-66
2021/06/15 09:58:17;;;;;;;9.57;6.97;;;;;;;33.58;24.14;99420.47;5092626;28;20032;-63
2021/06/15 10:00:52;;;;;;;9.50;6.78;;;;;;;33.21;24.68;99374.59;5102620;28;20027;-65
2021/06/15 10:03:17;;;;;;;7.55;6.85;;;;;;;33.29;24.01;99382.31;5101278;28;20032;-63
2021/06/15 10:05:43;;;;;;;9.90;6.30;;;;;;;33.64;24.20;99416.53;5093768;28;20055;-64
2021/06/15 10:08:13;;;;;;;9.27;6.20;;;;;;;33.82;24.55;99432.78;5105800;28;20027;-64
2021/06/15 10:10:43;;;;;;;7.80;6.38;;;;;;;33.71;24.60;99401.47;5095595;28;20059;-66
2021/06/15 10:13:09;;;;;;;7.55;6.32;;;;;;;33.63;24.84;99403.75;5098307;28;20077;-64
2021/06/15 10:15:38;;;;;;;8.35;6.68;;;;;;;33.78;24.67;99415.88;5103139;28;20116;-63
2021/06/15 10:18:06;;;;;;;7.75;6.03;;;;;;;33.97;25.03;99415.19;5092489;28;20039;-63
2021/06/15 10:20:33;;;;;;;10.63;6.43;;;;;;;34.07;24.15;99407.59;5104346;28;20036;-66
2021/06/15 10:23:00;;;;;;;8.15;5.88;;;;;;;34.04;24.24;99412.94;5097551;28;20125;-63
2021/06/15 10:25:31;;;;;;;7.85;6.35;;;;;;;34.13;23.91;99415.91;5106785;28;20123;-65
2021/06/15 10:27:58;;;;;;;6.70;6.10;;;;;;;34.10;24.48;99406.19;5092634;28;20028;-64
2021/06/15 10:30:35;;;;;;;8.18;6.05;;;;;;;34.24;24.00;99399.94;5105927;28;20032;-66
2021/06/15 10:33:13;;;;;;;11.40;6.30;;;;;;;34.35;23.83;99402.34;5097233;28;20024;-63
2021/06/15 10:35:49;;;;;;;6.85;5.60;;;;;;;34.41;23.57;99400.34;5094559;28;20104;-76
2021/06/15 10:38:40;;;;;;;12.43;6.63;;;;;;;34.38;22.91;99395.38;5105609;28;20092;-68
2021/06/15 10:41:07;;;;;;;8.70;6.78;;;;;;;34.21;23.47;99390.28;5099292;28;20439;-69
2021/06/15 10:43:35;;;;;;;11.57;6.78;;;;;;;34.15;23.66;99385.88;5094342;28;20479;-67
2021/06/15 10:46:21;;;;;;;10.18;6.82;;;;;;;34.09;23.99;99387.88;5104926;28;20038;-67
2021/06/15 10:48:54;;;;;;;;;;;;;;;34.59;23.03;99393.22;5092479;28;20940;-65
2021/06/15 10:51:21;;;;;;;7.60;6.28;;;;;;;34.04;23.15;99393.50;5096767;28;19912;-64
2021/06/15 10:53:46;;;;;;;7.78;6.18;;;;;;;33.86;23.96;99390.25;5106720;28;20054;-64
2021/06/15 10:56:15;;;;;;;8.15;6.47;;;;;;;33.70;24.34;99392.34;5096096;28;20707;-63
2021/06/15 10:58:44;;;;;;;10.43;6.85;;;;;;;33.59;24.70;99374.94;5106656;28;20361;-65
2021/06/15 11:01:16;;;;;;;11.02;6.55;;;;;;;33.59;24.81;99380.47;5103426;28;20533;-64
2021/06/15 11:03:55;;;;;;;7.75;6.75;;;;;;;33.64;24.75;99383.22;5097240;28;20040;-65
2021/06/15 11:06:39;;;;;;;9.15;5.88;;;;;;;33.72;23.90;99364.28;5096395;28;20627;-64
2021/06/15 11:09:17;;;;;;;6.40;5.78;;;;;;;33.56;24.12;99358.03;5103542;28;20042;-65
2021/06/15 11:12:10;;;;;;;6.50;5.95;;;;;;;33.48;24.04;99360.31;5107698;28;20055;-65
2021/06/15 11:14:37;;;;;;;7.75;5.97;;;;;;;33.25;24.14;99356.25;5098570;28;20058;-62
2021/06/15 11:17:06;;;;;;;6.60;6.00;;;;;;;32.85;25.32;99297.13;5103457;28;20085;-69
2021/06/15 11:19:35;;;;;;;6.82;5.85;;;;;;;32.95;25.57;99344.22;5106551;28;20039;-66
2021/06/15 11:22:07;;;;;;;6.97;6.25;;;;;;;32.90;25.77;99347.03;5095923;28;20028;-65
2021/06/15 11:24:39;;;;;;;9.00;6.68;;;;;;;32.64;25.54;99353.47;5106003;28;20028;-65
2021/06/15 11:27:26;;;;;;;8.45;6.18;;;;;;;32.55;25.82;99354.31;5102415;28;20114;-66
2021/06/15 11:29:55;;;;;;;9.65;6.28;;;;;;;32.53;25.94;99346.31;5095612;28;20072;-67
2021/06/15 11:32:34;;;;;;;7.70;6.88;;;;;;;32.62;25.63;99349.34;5096248;28;20028;-68
2021/06/15 11:34:59;;;;;;;10.68;6.63;;;;;;;32.62;26.07;99332.72;5103238;28;20027;-66
2021/06/15 11:37:37;;;;;;;8.48;7.05;;;;;;;32.72;26.09;99326.31;5105502;28;20155;-66
2021/06/15 11:40:18;;;;;;;8.02;7.18;;;;;;;32.72;26.12;99323.53;5095063;28;20463;-65
2021/06/15 11:43:09;;;;;;;10.23;7.07;;;;;;;32.57;25.75;99321.66;5105278;28;20467;-67